Time;durP1;ratioP1;P1;durP2;ratioP2;P2;SDS_P1;SDS_P2;PMS_P1;PMS_P2;Temp;Humidity;BMP_temperature;BMP_pressure;BME280_temperature;BME280_humidity;BME280_pressure;Samples;Min_cycle;Max_cycle;Signal;HPM_P1;HPM_P2
2021/10/20 00:02:19;;;;;;;30.02;17.77;;;;;;;2.76;61.04;101561.66;1763194;79;21038;-58
2021/10/20 00:04:48;;;;;;;28.38;16.37;;;;;;;2.77;60.91;101562.50;1759217;79;21126;-56
2021/10/20 00:07:14;;;;;;;26.07;16.57;;;;;;;2.76;60.83;101556.45;1739792;80;21087;-57
2021/10/20 00:09:40;;;;;;;28.35;17.12;;;;;;;2.75;60.90;101563.84;1763050;79;21125;-57
2021/10/20 00:12:07;;;;;;;30.85;17.17;;;;;;;2.75;60.99;101564.30;1704541;82;21802;-56
2021/10/20 00:14:34;;;;;;;32.63;18.48;;;;;;;2.74;61.11;101566.48;1760116;79;21052;-57
2021/10/20 00:17:01;;;;;;;34.38;18.35;;;;;;;2.73;61.05;101561.73;1765886;79;21026;-56
2021/10/20 00:19:29;;;;;;;34.45;18.02;;;;;;;2.70;60.98;101561.82;1768142;79;21145;-56
2021/10/20 00:21:56;;;;;;;36.33;19.02;;;;;;;2.68;60.75;101568.81;1731900;81;21552;-57
2021/10/20 00:24:23;;;;;;;37.75;18.60;;;;;;;2.66;60.50;101569.31;1726226;82;21095;-57
2021/10/20 00:26:49;;;;;;;33.45;18.50;;;;;;;2.63;60.41;101570.69;1745609;79;21070;-56
2021/10/20 00:29:16;;;;;;;31.23;19.67;;;;;;;2.64;60.52;101563.73;1765063;79;21121;-56
2021/10/20 00:31:43;;;;;;;37.08;18.30;;;;;;;2.65;60.67;101562.86;1766821;79;21486;-56
2021/10/20 00:34:09;;;;;;;36.90;19.42;;;;;;;2.67;60.75;101554.11;1745152;80;21026;-56
2021/10/20 00:36:36;;;;;;;35.25;18.57;;;;;;;2.69;60.56;101541.94;1768326;79;21595;-57
2021/10/20 00:39:03;;;;;;;30.68;19.15;;;;;;;2.70;60.42;101544.08;1769646;79;20995;-56
2021/10/20 00:41:30;;;;;;;35.28;19.10;;;;;;;2.70;60.27;101537.12;1767955;80;21117;-57
2021/10/20 00:43:56;;;;;;;30.37;17.02;;;;;;;2.71;60.23;101531.05;1763582;79;22292;-57
2021/10/20 00:46:29;;;;;;;32.13;18.32;;;;;;;2.71;60.03;101521.95;1770717;79;21062;-58
2021/10/20 00:48:56;;;;;;;35.35;17.55;;;;;;;2.75;59.85;101522.70;1769499;79;21030;-56
2021/10/20 00:51:25;;;;;;;33.08;18.57;;;;;;;2.75;59.49;101520.95;1770553;79;21046;-57
2021/10/20 00:54:01;;;;;;;30.50;17.05;;;;;;;2.75;59.33;101520.95;1765620;79;21058;-57
2021/10/20 00:56:26;;;;;;;25.25;15.45;;;;;;;2.72;59.26;101517.17;1767984;79;21159;-57
2021/10/20 00:58:52;;;;;;;34.65;16.87;;;;;;;2.74;59.28;101518.39;1768691;80;21022;-56
2021/10/20 01:01:19;;;;;;;24.43;15.23;;;;;;;2.72;59.08;101516.30;1746703;80;21093;-56
2021/10/20 01:03:46;;;;;;;32.70;15.70;;;;;;;2.69;58.98;101518.55;1747002;80;21072;-56
2021/10/20 01:06:13;;;;;;;24.95;13.83;;;;;;;2.66;58.94;101520.39;1771073;79;21050;-57
2021/10/20 01:08:40;;;;;;;24.85;14.63;;;;;;;2.63;58.84;101526.52;1760247;79;22010;-56
2021/10/20 01:11:06;;;;;;;23.73;13.22;;;;;;;2.65;58.93;101525.17;1760823;79;21249;-57
2021/10/20 01:13:32;;;;;;;26.20;13.83;;;;;;;2.69;58.79;101527.65;1766433;79;21126;-57
2021/10/20 01:15:59;;;;;;;29.72;14.30;;;;;;;2.73;58.76;101530.55;1758325;80;21058;-57
2021/10/20 01:18:26;;;;;;;24.63;13.78;;;;;;;2.76;58.52;101526.56;1734978;81;21045;-57
2021/10/20 01:20:52;;;;;;;25.48;14.63;;;;;;;2.77;58.32;101527.41;1740226;80;21774;-57
2021/10/20 01:23:20;;;;;;;34.05;14.75;;;;;;;2.73;58.27;101526.65;1714516;80;21266;-57
2021/10/20 01:25:47;;;;;;;21.45;14.25;;;;;;;2.74;58.17;101523.17;1760127;79;21038;-57
2021/10/20 01:28:13;;;;;;;23.70;14.93;;;;;;;2.71;58.06;101528.91;1763738;79;21073;-57
2021/10/20 01:30:40;;;;;;;25.68;13.30;;;;;;;2.68;57.84;101525.09;1765597;80;21049;-57
2021/10/20 01:33:07;;;;;;;28.17;14.33;;;;;;;2.62;57.84;101524.80;1760145;79;21512;-57
2021/10/20 01:35:33;;;;;;;25.10;14.53;;;;;;;2.59;58.09;101524.91;1765768;80;21540;-57
2021/10/20 01:37:59;;;;;;;24.57;14.58;;;;;;;2.56;58.11;101521.09;1760149;79;21035;-57
2021/10/20 01:40:26;;;;;;;26.33;14.87;;;;;;;2.50;58.17;101516.06;1737934;80;22173;-57
2021/10/20 01:42:52;;;;;;;28.73;14.03;;;;;;;2.44;58.23;101505.41;1765320;79;21574;-57
2021/10/20 01:45:19;;;;;;;23.77;14.50;;;;;;;2.37;58.39;101499.95;1745603;79;21109;-57
2021/10/20 01:47:46;;;;;;;27.15;14.95;;;;;;;2.37;58.59;101499.53;1768621;79;21166;-57
2021/10/20 01:50:14;;;;;;;29.00;16.10;;;;;;;2.37;58.69;101502.13;1762945;79;20983;-57
2021/10/20 01:52:41;;;;;;;25.05;15.23;;;;;;;2.36;58.64;101496.97;1763963;79;21114;-57
2021/10/20 01:55:11;;;;;;;24.40;14.00;;;;;;;2.35;58.59;101503.05;1769342;80;21014;-57
2021/10/20 01:57:38;;;;;;;23.60;14.20;;;;;;;2.32;58.79;101506.60;1765500;79;21139;-57
2021/10/20 02:00:06;;;;;;;29.35;14.75;;;;;;;2.33;58.74;101516.08;1770337;79;21078;-57
2021/10/20 02:02:35;;;;;;;27.60;15.98;;;;;;;2.31;58.85;101519.62;1744086;79;21086;-57
2021/10/20 02:05:01;;;;;;;23.40;15.00;;;;;;;2.30;58.92;101527.00;1726157;81;21027;-57
2021/10/20 02:07:28;;;;;;;27.95;15.55;;;;;;;2.30;59.05;101528.30;1748893;79;21566;-57
2021/10/20 02:09:54;;;;;;;25.85;14.47;;;;;;;2.30;58.98;101529.60;1745860;80;21239;-57
2021/10/20 02:12:21;;;;;;;20.32;13.10;;;;;;;2.29;58.95;101534.41;1746303;79;21029;-57
2021/10/20 02:14:49;;;;;;;24.23;14.65;;;;;;;2.27;59.11;101534.45;1774293;79;21523;-57
2021/10/20 02:18:58;;;;;;;26.90;13.85;;;;;;;2.30;59.52;101530.90;1799599;78;22595;-56
2021/10/20 02:21:24;;;;;;;23.47;14.03;;;;;;;2.25;59.73;101534.91;1771295;78;21569;-56
2021/10/20 02:23:51;;;;;;;25.52;14.10;;;;;;;2.26;59.85;101535.33;1739488;80;22107;-55
2021/10/20 02:26:17;;;;;;;24.45;13.88;;;;;;;2.31;59.67;101542.55;1768716;78;21319;-58
2021/10/20 02:28:44;;;;;;;21.60;13.00;;;;;;;2.31;59.65;101538.66;1766764;79;21062;-59
2021/10/20 02:31:10;;;;;;;29.02;15.50;;;;;;;2.32;59.59;101535.17;1750950;79;21074;-58
2021/10/20 02:33:37;;;;;;;21.85;14.07;;;;;;;2.32;59.67;101527.81;1772795;78;21055;-58
2021/10/20 02:36:04;;;;;;;26.10;14.93;;;;;;;2.32;59.54;101526.08;1747289;79;21252;-58
2021/10/20 02:38:30;;;;;;;26.55;14.18;;;;;;;2.31;59.59;101530.02;1753483;80;21615;-58
2021/10/20 02:40:57;;;;;;;30.10;14.73;;;;;;;2.32;59.78;101520.89;1757989;78;21006;-58
2021/10/20 02:43:23;;;;;;;28.07;15.23;;;;;;;2.33;59.84;101525.17;1753988;80;21038;-57
2021/10/20 02:45:50;;;;;;;25.50;15.10;;;;;;;2.33;59.80;101538.16;1775017;78;21038;-57
2021/10/20 02:48:16;;;;;;;26.90;15.58;;;;;;;2.30;59.68;101536.09;1773397;78;21500;-57
2021/10/20 02:50:43;;;;;;;25.50;15.23;;;;;;;2.24;59.78;101535.82;1724192;81;21060;-58
2021/10/20 02:53:09;;;;;;;34.27;15.35;;;;;;;2.23;59.94;101526.31;1693051;83;21090;-57
2021/10/20 02:55:39;;;;;;;30.80;15.30;;;;;;;2.19;60.05;101528.14;1713537;81;21054;-58
2021/10/20 02:58:04;;;;;;;31.97;16.07;;;;;;;2.20;59.97;101528.98;1718057;82;21054;-57
2021/10/20 03:00:30;;;;;;;21.62;14.07;;;;;;;2.16;60.04;101531.28;1718194;82;21159;-58
2021/10/20 03:02:57;;;;;;;27.37;15.05;;;;;;;2.15;60.02;101531.73;1724793;81;20999;-57
2021/10/20 03:05:23;;;;;;;24.40;15.80;;;;;;;2.16;60.11;101526.92;1687909;81;21069;-57
2021/10/20 03:07:50;;;;;;;29.25;14.58;;;;;;;2.19;60.16;101524.70;1716101;81;21058;-57
2021/10/20 03:10:18;;;;;;;26.62;15.20;;;;;;;2.21;60.24;101530.70;1716019;82;21473;-58
2021/10/20 03:12:45;;;;;;;28.45;15.18;;;;;;;2.23;60.24;101532.81;1716204;82;21115;-58
2021/10/20 03:15:11;;;;;;;23.32;14.38;;;;;;;2.27;60.27;101535.75;1709401;82;21095;-58
2021/10/20 03:17:38;;;;;;;25.92;13.95;;;;;;;2.28;60.42;101546.52;1684075;83;21599;-58
2021/10/20 03:20:12;;;;;;;27.55;14.53;;;;;;;2.33;60.57;101551.14;1715490;82;21426;-58
2021/10/20 03:22:40;;;;;;;23.40;12.95;;;;;;;2.36;60.67;101547.17;1706999;81;21122;-57
2021/10/20 03:25:08;;;;;;;26.65;14.58;;;;;;;2.38;60.76;101538.88;1709847;82;21696;-57
2021/10/20 03:27:46;;;;;;;26.82;13.40;;;;;;;2.42;60.88;101548.73;1708831;81;22484;-57
2021/10/20 03:30:13;;;;;;;22.22;13.22;;;;;;;2.46;61.01;101544.34;1708382;82;21728;-57
2021/10/20 03:32:40;;;;;;;19.62;12.33;;;;;;;2.49;60.97;101547.70;1711663;82;21085;-57
2021/10/20 03:35:08;;;;;;;22.58;12.50;;;;;;;2.51;60.99;101543.77;1712526;82;21093;-57
2021/10/20 03:37:36;;;;;;;25.25;13.55;;;;;;;2.56;61.11;101545.78;1712792;82;21111;-57
2021/10/20 03:40:05;;;;;;;21.07;11.38;;;;;;;2.60;61.18;101545.63;1681521;82;21575;-56
2021/10/20 03:42:33;;;;;;;21.65;11.00;;;;;;;2.64;60.95;101536.03;1712342;81;21141;-56
2021/10/20 03:45:00;;;;;;;17.65;10.20;;;;;;;2.70;60.53;101532.39;1705083;82;21003;-57
2021/10/20 03:47:26;;;;;;;19.67;11.95;;;;;;;2.76;59.99;101532.22;1707932;81;21132;-57
2021/10/20 03:49:53;;;;;;;14.80;9.70;;;;;;;2.79;59.53;101530.38;1710253;82;21204;-56
2021/10/20 03:52:20;;;;;;;22.17;12.10;;;;;;;2.80;59.45;101524.72;1709348;81;21563;-57
2021/10/20 03:54:47;;;;;;;14.63;9.38;;;;;;;2.83;59.64;101523.34;1711528;82;21042;-57
2021/10/20 03:57:14;;;;;;;24.15;11.15;;;;;;;2.86;59.82;101523.25;1686936;82;21030;-58
2021/10/20 03:59:43;;;;;;;21.25;10.80;;;;;;;2.91;59.92;101525.73;1710588;82;21102;-57
2021/10/20 04:02:10;;;;;;;17.17;10.23;;;;;;;2.97;60.02;101520.32;1713269;81;21034;-57
2021/10/20 04:04:37;;;;;;;16.95;8.88;;;;;;;3.03;59.76;101521.91;1684784;83;21073;-57
2021/10/20 04:07:04;;;;;;;18.48;10.20;;;;;;;3.09;59.59;101524.30;1690374;83;21565;-58
2021/10/20 04:09:30;;;;;;;16.82;9.90;;;;;;;3.12;59.41;101524.21;1714227;82;21106;-57
2021/10/20 04:11:56;;;;;;;15.53;9.45;;;;;;;3.15;59.39;101528.86;1711455;82;21082;-57
2021/10/20 04:14:23;;;;;;;20.05;10.28;;;;;;;3.21;59.46;101533.05;1711333;82;21155;-58
2021/10/20 04:16:50;;;;;;;17.50;9.70;;;;;;;3.27;59.63;101533.30;1689925;83;21603;-57
2021/10/20 04:19:17;;;;;;;19.05;10.13;;;;;;;3.30;59.89;101527.55;1707215;82;21121;-58
2021/10/20 04:21:43;;;;;;;18.80;11.25;;;;;;;3.30;59.77;101532.74;1707010;82;21106;-58
2021/10/20 04:24:10;;;;;;;21.45;11.88;;;;;;;3.28;59.71;101522.00;1710062;82;21561;-58
2021/10/20 04:26:37;;;;;;;20.95;11.15;;;;;;;3.28;59.84;101520.70;1710038;82;21150;-58
2021/10/20 04:29:04;;;;;;;18.95;11.40;;;;;;;3.29;59.63;101522.39;1692937;82;21008;-58
2021/10/20 04:31:31;;;;;;;24.02;11.43;;;;;;;3.34;59.64;101525.23;1679195;83;21042;-57
2021/10/20 04:33:57;;;;;;;20.25;11.73;;;;;;;3.38;59.31;101523.41;1706833;82;21660;-57
2021/10/20 04:36:24;;;;;;;20.40;11.97;;;;;;;3.42;59.21;101515.89;1694247;82;21091;-57
2021/10/20 04:38:50;;;;;;;17.75;10.43;;;;;;;3.48;59.09;101517.01;1684553;82;21136;-57
2021/10/20 04:41:17;;;;;;;17.42;9.40;;;;;;;3.52;58.95;101517.30;1687145;82;21131;-58
2021/10/20 04:43:43;;;;;;;18.85;10.28;;;;;;;3.59;58.75;101509.30;1696787;82;22437;-57
2021/10/20 04:46:10;;;;;;;17.87;10.25;;;;;;;3.65;58.57;101500.00;1680890;83;21583;-57
2021/10/20 04:48:36;;;;;;;15.70;9.13;;;;;;;3.69;58.30;101494.61;1683664;83;21121;-58
2021/10/20 04:51:03;;;;;;;15.32;8.83;;;;;;;3.71;58.30;101492.80;1752284;80;22908;-57
2021/10/20 04:53:29;;;;;;;17.75;9.05;;;;;;;3.75;58.17;101490.10;1756732;79;21486;-58
2021/10/20 04:55:56;;;;;;;14.95;9.25;;;;;;;3.79;58.09;101489.11;1742417;79;21016;-57
2021/10/20 04:58:22;;;;;;;16.67;9.90;;;;;;;3.82;57.90;101485.95;1750526;79;21020;-57
2021/10/20 05:00:49;;;;;;;17.60;10.40;;;;;;;3.84;57.76;101484.13;1755271;79;21090;-57
2021/10/20 05:03:15;;;;;;;18.57;10.63;;;;;;;3.88;57.68;101483.14;1744870;79;21129;-57
2021/10/20 05:05:41;;;;;;;25.37;11.18;;;;;;;3.96;57.47;101478.95;1747206;79;21055;-57
2021/10/20 05:08:08;;;;;;;21.93;10.90;;;;;;;4.00;57.10;101485.77;1756887;79;21076;-57
2021/10/20 05:10:37;;;;;;;21.45;10.48;;;;;;;4.06;57.03;101484.23;1742347;79;21055;-58
2021/10/20 05:13:06;;;;;;;21.50;10.93;;;;;;;4.12;56.85;101480.59;1751422;79;21143;-57
2021/10/20 05:15:32;;;;;;;15.78;10.25;;;;;;;4.17;56.62;101485.18;1731067;81;21081;-58
2021/10/20 05:18:00;;;;;;;16.60;10.38;;;;;;;4.22;56.46;101481.95;1752659;79;21045;-58
2021/10/20 05:20:27;;;;;;;16.27;9.95;;;;;;;4.24;56.42;101480.59;1735455;80;21679;-58
2021/10/20 05:22:54;;;;;;;20.30;10.18;;;;;;;4.27;56.51;101478.73;1736644;80;21055;-57
2021/10/20 05:25:20;;;;;;;18.55;10.03;;;;;;;4.33;56.45;101480.71;1723009;81;21043;-57
2021/10/20 05:27:47;;;;;;;18.62;10.10;;;;;;;4.37;56.54;101473.16;1737599;80;21169;-57
2021/10/20 05:30:13;;;;;;;18.75;10.13;;;;;;;4.40;56.41;101475.20;1742174;80;21039;-57
2021/10/20 05:32:40;;;;;;;17.95;10.78;;;;;;;4.45;56.51;101476.34;1741591;80;21560;-57
2021/10/20 05:35:09;;;;;;;15.45;9.63;;;;;;;4.51;56.49;101480.04;1744231;80;21522;-57
2021/10/20 05:37:36;;;;;;;18.77;10.00;;;;;;;4.57;55.98;101474.61;1741535;80;21063;-57
2021/10/20 05:40:04;;;;;;;17.17;11.48;;;;;;;4.62;56.05;101467.46;1747245;80;21225;-58
2021/10/20 05:42:30;;;;;;;20.23;11.57;;;;;;;4.69;56.17;101466.77;1726616;80;21056;-58
2021/10/20 05:44:57;;;;;;;21.05;10.58;;;;;;;4.77;55.83;101476.43;1741922;80;21076;-58
2021/10/20 05:47:23;;;;;;;20.00;10.05;;;;;;;4.82;55.59;101474.95;1740580;82;21091;-58
2021/10/20 05:49:50;;;;;;;20.65;11.25;;;;;;;4.88;55.35;101475.20;1741252;80;21088;-58
2021/10/20 05:52:16;;;;;;;20.88;10.90;;;;;;;4.90;55.29;101465.55;1741367;80;21217;-57
2021/10/20 05:54:43;;;;;;;20.10;11.12;;;;;;;4.94;55.26;101467.11;1735309;80;21574;-59
2021/10/20 05:57:09;;;;;;;18.85;9.70;;;;;;;5.00;55.19;101476.84;1737614;82;21129;-58
2021/10/20 05:59:36;;;;;;;19.25;10.32;;;;;;;5.05;55.03;101473.23;1692367;82;21097;-59
2021/10/20 06:02:03;;;;;;;24.52;11.15;;;;;;;5.11;55.30;101461.22;1727982;80;21079;-59
2021/10/20 06:04:29;;;;;;;20.25;10.63;;;;;;;5.23;55.47;101458.14;1735899;80;21068;-59
2021/10/20 06:06:55;;;;;;;17.05;9.90;;;;;;;5.32;55.21;101452.53;1734217;80;21083;-59
2021/10/20 06:09:22;;;;;;;20.62;10.50;;;;;;;5.38;55.10;101452.30;1706299;81;21026;-58
2021/10/20 06:11:48;;;;;;;18.20;9.95;;;;;;;5.45;55.08;101455.50;1737007;80;21497;-58
2021/10/20 06:14:15;;;;;;;19.92;10.20;;;;;;;5.54;55.17;101449.04;1736760;80;21073;-58
2021/10/20 06:16:42;;;;;;;17.48;9.68;;;;;;;5.68;55.38;101448.02;1735761;82;21943;-56
2021/10/20 06:19:09;;;;;;;16.93;9.30;;;;;;;5.81;55.13;101437.03;1728432;80;21077;-57
2021/10/20 06:21:35;;;;;;;14.90;8.40;;;;;;;5.93;55.21;101429.52;1766486;79;21071;-58
2021/10/20 06:24:02;;;;;;;13.28;8.20;;;;;;;6.09;55.25;101437.55;1746328;80;21642;-57
2021/10/20 06:26:29;;;;;;;21.02;9.40;;;;;;;6.23;54.57;101427.78;1764905;79;21050;-57
2021/10/20 06:28:55;;;;;;;14.13;9.13;;;;;;;6.35;54.18;101430.30;1770650;78;21137;-57
2021/10/20 06:31:22;;;;;;;19.07;8.70;;;;;;;6.44;53.39;101424.66;1733566;80;21090;-57
2021/10/20 06:33:48;;;;;;;18.07;9.20;;;;;;;6.49;52.85;101425.30;1739770;80;21501;-58
2021/10/20 06:36:32;;;;;;;17.37;10.23;;;;;;;6.58;53.03;101423.17;1766314;79;21049;-58
2021/10/20 06:38:59;;;;;;;18.27;9.58;;;;;;;6.66;52.45;101427.59;1770297;78;21038;-56
2021/10/20 06:41:26;;;;;;;16.02;9.43;;;;;;;6.74;51.77;101422.84;1762948;79;21195;-57
2021/10/20 06:43:52;;;;;;;17.98;8.88;;;;;;;6.84;52.18;101428.03;1770790;79;21468;-57
2021/10/20 06:46:20;;;;;;;13.05;7.83;;;;;;;6.97;51.62;101426.13;1770500;78;21113;-58
2021/10/20 06:48:47;;;;;;;16.12;8.10;;;;;;;7.06;50.61;101426.53;1751623;80;21046;-57
2021/10/20 06:51:14;;;;;;;12.07;6.97;;;;;;;7.15;50.91;101411.30;1759080;79;21572;-56
2021/10/20 06:53:41;;;;;;;11.60;6.55;;;;;;;7.27;50.72;101408.53;1767759;79;21071;-57
2021/10/20 06:56:08;;;;;;;13.25;7.15;;;;;;;7.38;50.72;101411.44;1762474;79;21073;-59
2021/10/20 06:58:35;;;;;;;14.00;6.25;;;;;;;7.50;50.18;101399.06;1771273;79;21046;-57
2021/10/20 07:01:03;;;;;;;14.65;6.10;;;;;;;7.62;49.36;101393.19;1761854;79;21055;-58
2021/10/20 07:03:30;;;;;;;16.20;6.90;;;;;;;7.74;48.97;101400.03;1765872;78;21081;-58
2021/10/20 07:05:56;;;;;;;13.05;6.75;;;;;;;7.85;48.92;101401.64;1742020;80;22089;-58
2021/10/20 07:08:22;;;;;;;12.68;6.40;;;;;;;7.97;48.65;101404.91;1746438;79;21051;-58
2021/10/20 07:10:50;;;;;;;10.03;6.03;;;;;;;8.09;48.26;101390.78;1771000;79;21026;-58
2021/10/20 07:13:17;;;;;;;15.90;6.03;;;;;;;8.18;48.15;101383.25;1768946;78;21097;-57
2021/10/20 07:15:44;;;;;;;10.50;5.97;;;;;;;8.27;48.54;101374.50;1765734;79;21082;-57
2021/10/20 07:18:11;;;;;;;14.68;6.80;;;;;;;8.36;48.38;101374.85;1744003;80;21066;-57
2021/10/20 07:20:38;;;;;;;14.50;5.78;;;;;;;8.45;48.13;101375.31;1756400;79;21043;-58
2021/10/20 07:23:04;;;;;;;10.68;5.65;;;;;;;8.52;48.16;101372.28;1765190;79;21086;-58
2021/10/20 07:25:30;;;;;;;15.68;6.95;;;;;;;8.59;48.22;101373.22;1742292;80;21059;-57
2021/10/20 07:27:57;;;;;;;12.53;6.20;;;;;;;8.66;48.44;101378.53;1753899;79;21083;-58
2021/10/20 07:30:23;;;;;;;13.00;6.15;;;;;;;8.74;48.55;101375.85;1757053;80;21135;-57
2021/10/20 07:32:50;;;;;;;12.80;5.85;;;;;;;8.83;48.58;101373.64;1754169;79;21041;-59
2021/10/20 07:35:17;;;;;;;13.70;7.70;;;;;;;8.89;48.71;101367.58;1741829;80;21046;-58
2021/10/20 07:37:44;;;;;;;11.38;6.35;;;;;;;8.96;48.74;101371.14;1760424;79;21051;-58
2021/10/20 07:40:12;;;;;;;12.88;6.40;;;;;;;9.01;48.85;101368.65;1741374;80;21535;-58
2021/10/20 07:42:39;;;;;;;14.60;6.50;;;;;;;9.08;48.94;101368.66;1752912;80;21520;-58
2021/10/20 07:45:08;;;;;;;11.65;5.95;;;;;;;9.15;48.94;101372.25;1744492;80;21083;-58
2021/10/20 07:47:35;;;;;;;10.05;5.58;;;;;;;9.21;49.10;101370.56;1754516;79;21069;-58
2021/10/20 07:50:04;;;;;;;12.23;6.03;;;;;;;9.30;49.46;101362.16;1737789;80;21117;-58
2021/10/20 07:52:33;;;;;;;12.00;6.25;;;;;;;9.41;49.83;101357.57;1746787;79;21055;-58
2021/10/20 07:54:59;;;;;;;11.35;5.78;;;;;;;9.52;49.46;101354.32;1752073;79;21137;-59
2021/10/20 07:57:28;;;;;;;12.68;6.22;;;;;;;9.63;49.65;101345.30;1753987;79;21019;-59
2021/10/20 07:59:54;;;;;;;12.15;6.37;;;;;;;9.78;49.25;101340.41;1758930;79;21043;-59
2021/10/20 08:02:21;;;;;;;10.75;5.20;;;;;;;9.90;49.33;101340.16;1756622;79;21050;-59
2021/10/20 08:04:48;;;;;;;10.00;5.70;;;;;;;10.06;49.23;101343.14;1751692;79;21106;-58
2021/10/20 08:07:14;;;;;;;10.00;5.67;;;;;;;10.22;48.71;101350.42;1759791;79;22395;-59
2021/10/20 08:09:42;;;;;;;10.25;5.00;;;;;;;10.34;48.66;101346.20;1716383;80;21059;-57
2021/10/20 08:12:09;;;;;;;12.63;5.80;;;;;;;10.42;48.77;101336.03;1737439;79;21011;-57
2021/10/20 08:14:40;;;;;;;9.35;5.12;;;;;;;10.49;48.91;101345.24;1774370;79;21560;-57
2021/10/20 08:17:05;;;;;;;9.25;5.12;;;;;;;10.58;49.05;101338.53;1752000;79;21078;-58
2021/10/20 08:19:33;;;;;;;12.00;6.08;;;;;;;10.62;49.26;101326.84;1762086;80;21515;-58
2021/10/20 08:22:00;;;;;;;11.35;6.37;;;;;;;10.66;49.93;101332.30;1744264;79;21053;-55
2021/10/20 08:24:27;;;;;;;9.78;5.65;;;;;;;10.71;50.27;101322.80;1769312;79;21092;-56
2021/10/20 08:26:54;;;;;;;11.33;5.67;;;;;;;10.81;50.19;101326.52;1765712;79;21050;-57
2021/10/20 08:29:21;;;;;;;12.23;6.58;;;;;;;10.95;50.44;101319.00;1757286;79;21011;-55
2021/10/20 08:31:47;;;;;;;15.95;7.05;;;;;;;11.11;50.53;101303.86;1763269;79;21140;-58
2021/10/20 08:34:14;;;;;;;9.53;6.12;;;;;;;11.28;50.34;101300.53;1762796;79;21070;-56
2021/10/20 08:36:41;;;;;;;10.55;5.42;;;;;;;11.37;50.15;101299.92;1761501;79;21032;-56
2021/10/20 08:39:07;;;;;;;14.98;7.22;;;;;;;11.39;50.20;101297.18;1768316;79;21084;-57
2021/10/20 08:41:34;;;;;;;9.33;5.58;;;;;;;11.39;50.37;101292.74;1741776;80;21055;-57
2021/10/20 08:44:00;;;;;;;13.15;7.22;;;;;;;11.41;50.93;101292.64;1731461;80;21540;-57
2021/10/20 08:46:26;;;;;;;12.33;6.28;;;;;;;11.46;51.27;101283.94;1762562;79;21133;-59
2021/10/20 08:48:54;;;;;;;12.18;6.33;;;;;;;11.50;51.71;101286.75;1742264;79;21015;-57
2021/10/20 08:51:22;;;;;;;13.22;7.55;;;;;;;11.55;51.72;101282.00;1764845;79;21145;-56
2021/10/20 08:53:56;;;;;;;11.38;7.25;;;;;;;11.64;51.82;101275.23;1761062;79;21585;-57
2021/10/20 08:56:22;;;;;;;13.65;6.45;;;;;;;11.70;52.05;101280.91;1733083;80;21534;-58
2021/10/20 08:58:48;;;;;;;18.30;7.33;;;;;;;11.80;51.81;101271.88;1733255;79;21035;-57
2021/10/20 09:01:15;;;;;;;15.78;8.58;;;;;;;11.87;51.75;101273.13;1766182;79;21527;-57
2021/10/20 09:03:42;;;;;;;13.83;8.03;;;;;;;11.97;51.89;101269.39;1760071;79;21526;-57
2021/10/20 09:06:09;;;;;;;13.28;7.50;;;;;;;12.05;51.44;101268.36;1760273;79;21081;-58
2021/10/20 09:08:44;;;;;;;12.45;6.70;;;;;;;12.14;51.48;101267.30;1752953;80;21078;-57
2021/10/20 09:11:34;;;;;;;13.20;7.75;;;;;;;12.19;51.29;101259.93;1768998;79;21121;-57
2021/10/20 09:14:14;;;;;;;13.95;8.18;;;;;;;12.26;51.63;101246.64;1756546;79;21021;-57
2021/10/20 09:16:43;;;;;;;13.00;7.75;;;;;;;12.35;51.70;101247.75;1761606;79;21528;-56
2021/10/20 09:19:22;;;;;;;17.23;7.37;;;;;;;12.44;51.79;101240.49;1762359;79;21066;-56
2021/10/20 09:21:59;;;;;;;16.25;8.33;;;;;;;12.52;51.88;101229.34;1757058;80;21087;-56
2021/10/20 09:24:36;;;;;;;13.65;8.28;;;;;;;12.61;51.94;101220.75;1758098;80;21105;-56
2021/10/20 09:27:03;;;;;;;16.42;8.40;;;;;;;12.70;51.80;101209.97;1733868;80;21064;-56
2021/10/20 09:29:32;;;;;;;15.15;8.63;;;;;;;12.77;51.79;101204.08;1757776;80;21095;-57
2021/10/20 09:31:59;;;;;;;13.15;7.90;;;;;;;12.87;51.79;101207.36;1750289;80;21093;-57
2021/10/20 09:34:35;;;;;;;15.00;7.75;;;;;;;12.95;51.44;101207.13;1753258;80;21194;-57
2021/10/20 09:37:03;;;;;;;;;;;;;;;13.01;51.24;101205.80;1742378;80;21094;-57
2021/10/20 09:39:30;;;;;;;17.48;9.05;;;;;;;13.03;51.38;101209.64;1737710;80;20626;-57
2021/10/20 09:42:11;;;;;;;14.93;9.18;;;;;;;12.95;51.60;101199.20;1737710;80;21066;-57
2021/10/20 09:44:46;;;;;;;11.53;7.58;;;;;;;12.97;51.57;101192.48;1736659;80;21106;-56
2021/10/20 09:47:13;;;;;;;13.90;8.33;;;;;;;12.98;51.75;101187.56;1745750;80;21146;-56
2021/10/20 09:49:58;;;;;;;13.40;7.67;;;;;;;12.98;51.65;101186.25;1758858;79;22418;-57
2021/10/20 09:55:20;;;;;;;16.02;8.33;;;;;;;13.13;51.98;101177.13;1795481;78;22256;-55
2021/10/20 09:57:46;;;;;;;17.80;8.30;;;;;;;13.16;52.27;101179.98;1768271;80;21058;-55
2021/10/20 10:00:13;;;;;;;14.40;7.78;;;;;;;13.32;52.16;101173.06;1768252;80;21177;-57
2021/10/20 10:02:40;;;;;;;16.20;7.60;;;;;;;13.44;51.78;101173.41;1763038;80;21004;-56
2021/10/20 10:05:08;;;;;;;18.98;9.88;;;;;;;13.58;51.55;101166.17;1745545;80;21106;-56
2021/10/20 10:07:34;;;;;;;20.52;10.10;;;;;;;13.69;51.63;101175.41;1762422;80;21050;-56
2021/10/20 10:10:01;;;;;;;14.60;8.28;;;;;;;13.78;51.33;101168.53;1767961;80;21610;-56
2021/10/20 10:12:28;;;;;;;15.80;9.03;;;;;;;13.82;51.46;101162.02;1687102;81;21096;-55
2021/10/20 10:15:10;;;;;;;18.42;9.40;;;;;;;13.90;51.26;101161.77;1715774;82;21055;-56
2021/10/20 10:17:38;;;;;;;15.70;8.73;;;;;;;14.00;51.75;101157.86;1708159;83;21122;-58
2021/10/20 10:20:10;;;;;;;16.07;9.58;;;;;;;14.06;51.27;101156.54;1735021;80;21094;-56
2021/10/20 10:22:53;;;;;;;19.30;10.53;;;;;;;14.11;51.76;101147.24;1712351;83;21177;-56
2021/10/20 10:25:37;;;;;;;17.90;9.93;;;;;;;14.23;51.81;101151.17;1710697;83;21127;-58
2021/10/20 10:28:24;;;;;;;18.15;9.60;;;;;;;14.33;51.26;101141.98;1693512;83;21079;-57
2021/10/20 10:30:57;;;;;;;14.10;9.18;;;;;;;14.44;51.22;101126.00;1712318;81;21106;-62
2021/10/20 10:33:28;;;;;;;14.10;8.53;;;;;;;14.54;51.08;101125.61;1704834;82;22233;-56
2021/10/20 10:36:11;;;;;;;16.77;9.95;;;;;;;14.63;50.32;101119.54;1738445;80;21105;-57
2021/10/20 10:38:47;;;;;;;16.15;10.65;;;;;;;14.73;50.17;101108.17;1732910;80;21123;-56
2021/10/20 10:41:29;;;;;;;20.15;10.95;;;;;;;14.80;50.21;101102.19;1708027;81;21071;-57
2021/10/20 10:44:07;;;;;;;20.95;11.75;;;;;;;14.89;49.79;101103.20;1681859;83;21015;-57
2021/10/20 10:46:36;;;;;;;17.00;9.65;;;;;;;15.01;49.77;101090.23;1732351;80;21109;-56
2021/10/20 10:49:04;;;;;;;17.60;9.68;;;;;;;15.17;49.67;101086.22;1706648;81;21530;-57
2021/10/20 10:51:31;;;;;;;19.42;9.80;;;;;;;15.33;48.99;101081.24;1688954;83;21892;-57
2021/10/20 10:54:02;;;;;;;16.67;8.40;;;;;;;15.45;48.98;101086.40;1664274;83;21105;-57
2021/10/20 10:56:29;;;;;;;15.30;9.13;;;;;;;15.55;48.51;101080.62;1704264;82;21625;-56
2021/10/20 10:59:10;;;;;;;15.43;8.78;;;;;;;15.60;48.23;101075.27;1695915;82;21039;-56
2021/10/20 11:01:48;;;;;;;13.45;8.80;;;;;;;15.59;48.27;101073.58;1720484;80;21667;-56
2021/10/20 11:04:28;;;;;;;15.78;9.20;;;;;;;15.56;48.11;101079.66;1727915;82;21096;-55
2021/10/20 11:06:55;;;;;;;18.55;10.32;;;;;;;15.53;48.27;101075.48;1725646;80;21635;-57
2021/10/20 11:09:31;;;;;;;15.30;9.75;;;;;;;15.49;48.38;101066.10;1717112;82;21059;-57
2021/10/20 11:11:55;;;;;;;16.93;9.55;;;;;;;15.46;48.65;101053.61;1725173;82;21062;-57
2021/10/20 11:14:23;;;;;;;16.10;8.48;;;;;;;15.42;48.68;101059.19;1733841;80;21118;-56
2021/10/20 11:17:14;;;;;;;15.15;8.58;;;;;;;15.44;49.02;101056.40;1717747;82;21030;-56
2021/10/20 11:19:38;;;;;;;16.05;9.58;;;;;;;15.52;48.84;101059.20;1720375;80;21047;-56
2021/10/20 11:22:04;;;;;;;14.80;9.53;;;;;;;15.62;48.36;101043.30;1720390;82;21059;-56
2021/10/20 11:24:34;;;;;;;14.30;8.75;;;;;;;15.68;48.24;101037.41;1727367;80;21106;-57
2021/10/20 11:27:05;;;;;;;16.10;9.13;;;;;;;15.75;48.40;101031.05;1726078;80;21063;-57
2021/10/20 11:29:42;;;;;;;17.27;9.25;;;;;;;15.86;47.92;101028.79;1696436;80;21144;-57